Knaphill, United Kingdom
Current Conditions -  °F | °C
As of 2:50 PM on Tuesday 21 Oct 2014 (Local Time) from EGLF Reporting Station
Scattered Clouds Scattered Clouds  
Wind Chill: 57°   Ceiling: Unl
Heat Index: 57°   Visibility: 6mi
Dew Point: 39°   Wind: 20mph
Humidity: 51%   Direction: 290°WNW
Pressure: 29.8"   Gusts: 41mph
Location:  51.32°N, 0.62°W
Report Text: EGLF 211350Z 29017G36KT 240V320 9999 SCT045 14/04 Q1009
Loading
Personal Weather Stations






























Interactive Weather Map
Tropical Storm Tracking
New forecast layout! Learn more

10-Day Weather Forecast

Advertisements
Track Severe Weather on mobile